This is the latest recevied weather packets stored in our database for station/object VE1UHF-4. If no packets are shown the sender has not sent any weather packets the latest 10 day(s).
| Time | Temp. | Humidity | Pressure | Rain* | Wind** | Luminosity | Snow |
|---|---|---|---|---|---|---|---|
| 1777608896 | 11.11° C | 72% | 1006.4 hPa | 0 mm | - | - | - |
| 1777607995 | 11.11° C | 71% | 1006.8 hPa | 0 mm | - | - | - |
| 1777607093 | 11.67° C | 71% | 1007.1 hPa | 0 mm | - | - | - |
| 1777606193 | 11.67° C | 71% | 1007.2 hPa | 0 mm | - | - | - |
| 1777605293 | 11.67° C | 71% | 1007.4 hPa | 0 mm | - | - | - |
| 1777604392 | 11.67° C | 71% | 1007.6 hPa | 0 mm | - | - | - |
| 1777603491 | 11.67° C | 70% | 1007.9 hPa | 0 mm | - | - | - |
| 1777602590 | 12.22° C | 69% | 1008.2 hPa | 0 mm | - | - | - |
| 1777584580 | 16.67° C | 66% | 1008.7 hPa | 0 mm | - | - | - |
| 1777583679 | 17.22° C | 66% | 1008.9 hPa | 0 mm | - | - | - |
| 1777582779 | 17.22° C | 67% | 1009 hPa | 0 mm | - | - | - |
| 1777580077 | 17.78° C | 68% | 1009.1 hPa | 0 mm | - | - | - |
| 1777579177 | 17.78° C | 68% | 1009.1 hPa | 0 mm | - | - | - |
| 1777572873 | 16.67° C | 71% | 1009.9 hPa | 0 mm | - | - | - |
| 1777571975 | 16.67° C | 70% | 1010.1 hPa | 0 mm | - | - | - |
| 1777564770 | 13.33° C | 75% | 1011.2 hPa | 0 mm | - | - | - |
| 1777562067 | 12.22° C | 73% | 1011.5 hPa | 0 mm | - | - | - |
| 1777561166 | 11.67° C | 74% | 1011.7 hPa | 0 mm | - | - | - |
| 1777558464 | 10.56° C | 74% | 1012.1 hPa | 0 mm | - | - | - |
| 1777557563 | 10.56° C | 73% | 1011.9 hPa | 0 mm | - | - | - |
| 1777556664 | 10° C | 73% | 1012.1 hPa | 0 mm | - | - | - |
| 1777555762 | 10° C | 74% | 1012.1 hPa | 0 mm | - | - | - |
| 1777554862 | 9.44° C | 74% | 1011.9 hPa | 0 mm | - | - | - |
| 1777553962 | 8.89° C | 74% | 1012.1 hPa | 0 mm | - | - | - |
| 1777551260 | 8.33° C | 73% | 1012 hPa | 0 mm | - | - | - |
* Rain since midnight (hover to see other rain measurements)
** Current wind speed in m/s (hover to see current wind gust speed)